sensor_id;sensor_type;location;lat;lon;timestamp;P1;durP1;ratioP1;P2;durP2;ratioP2
48975;SDS011;34791;52.752;8.346;2023-03-17T00:00:49;10.70;;;4.10;;
48975;SDS011;34791;52.752;8.346;2023-03-17T00:03:26;10.33;;;4.10;;
48975;SDS011;34791;52.752;8.346;2023-03-17T00:05:53;8.23;;;4.63;;
48975;SDS011;34791;52.752;8.346;2023-03-17T00:08:21;7.93;;;4.20;;
48975;SDS011;34791;52.752;8.346;2023-03-17T00:10:51;9.48;;;4.65;;
48975;SDS011;34791;52.752;8.346;2023-03-17T00:13:18;11.50;;;4.90;;
48975;SDS011;34791;52.752;8.346;2023-03-17T00:15:45;9.60;;;5.07;;
48975;SDS011;34791;52.752;8.346;2023-03-17T00:18:14;8.20;;;4.10;;
48975;SDS011;34791;52.752;8.346;2023-03-17T00:20:41;8.70;;;4.30;;
48975;SDS011;34791;52.752;8.346;2023-03-17T00:23:10;8.83;;;4.30;;
48975;SDS011;34791;52.752;8.346;2023-03-17T00:25:40;9.33;;;4.77;;
48975;SDS011;34791;52.752;8.346;2023-03-17T00:28:17;8.87;;;4.17;;
48975;SDS011;34791;52.752;8.346;2023-03-17T00:30:45;7.83;;;3.53;;
48975;SDS011;34791;52.752;8.346;2023-03-17T00:33:12;9.43;;;4.00;;
48975;SDS011;34791;52.752;8.346;2023-03-17T00:35:40;6.80;;;3.50;;
48975;SDS011;34791;52.752;8.346;2023-03-17T00:38:17;8.30;;;4.10;;
48975;SDS011;34791;52.752;8.346;2023-03-17T00:40:44;7.43;;;4.20;;
48975;SDS011;34791;52.752;8.346;2023-03-17T00:43:11;10.43;;;3.73;;
48975;SDS011;34791;52.752;8.346;2023-03-17T00:45:37;11.17;;;4.30;;
48975;SDS011;34791;52.752;8.346;2023-03-17T00:48:05;7.57;;;4.30;;
48975;SDS011;34791;52.752;8.346;2023-03-17T00:50:39;8.63;;;4.07;;
48975;SDS011;34791;52.752;8.346;2023-03-17T00:53:05;6.90;;;3.47;;
48975;SDS011;34791;52.752;8.346;2023-03-17T00:55:34;9.53;;;3.83;;
48975;SDS011;34791;52.752;8.346;2023-03-17T00:58:00;12.83;;;4.50;;
48975;SDS011;34791;52.752;8.346;2023-03-17T01:00:27;8.40;;;4.70;;
48975;SDS011;34791;52.752;8.346;2023-03-17T01:02:54;8.17;;;4.20;;
48975;SDS011;34791;52.752;8.346;2023-03-17T01:05:22;9.67;;;4.13;;
48975;SDS011;34791;52.752;8.346;2023-03-17T01:07:49;10.83;;;4.27;;
48975;SDS011;34791;52.752;8.346;2023-03-17T01:10:22;10.17;;;4.33;;
48975;SDS011;34791;52.752;8.346;2023-03-17T01:12:50;7.30;;;3.77;;
48975;SDS011;34791;52.752;8.346;2023-03-17T01:15:18;8.50;;;4.13;;
48975;SDS011;34791;52.752;8.346;2023-03-17T01:17:45;9.13;;;4.43;;
48975;SDS011;34791;52.752;8.346;2023-03-17T01:20:16;8.07;;;4.27;;
48975;SDS011;34791;52.752;8.346;2023-03-17T01:22:44;8.33;;;3.90;;
48975;SDS011;34791;52.752;8.346;2023-03-17T01:25:09;9.53;;;4.70;;
48975;SDS011;34791;52.752;8.346;2023-03-17T01:27:36;7.53;;;4.37;;
48975;SDS011;34791;52.752;8.346;2023-03-17T01:30:03;8.20;;;4.43;;
48975;SDS011;34791;52.752;8.346;2023-03-17T01:32:30;10.23;;;4.57;;
48975;SDS011;34791;52.752;8.346;2023-03-17T01:34:56;8.53;;;4.50;;
48975;SDS011;34791;52.752;8.346;2023-03-17T01:37:23;9.63;;;4.20;;
48975;SDS011;34791;52.752;8.346;2023-03-17T01:39:49;8.33;;;4.23;;
48975;SDS011;34791;52.752;8.346;2023-03-17T01:42:16;10.33;;;4.03;;
48975;SDS011;34791;52.752;8.346;2023-03-17T01:44:55;8.37;;;4.60;;
48975;SDS011;34791;52.752;8.346;2023-03-17T01:47:26;7.33;;;3.97;;
48975;SDS011;34791;52.752;8.346;2023-03-17T01:49:57;7.67;;;4.40;;
48975;SDS011;34791;52.752;8.346;2023-03-17T01:52:26;8.33;;;4.37;;
48975;SDS011;34791;52.752;8.346;2023-03-17T01:54:57;8.47;;;4.57;;
48975;SDS011;34791;52.752;8.346;2023-03-17T01:58:11;7.20;;;4.10;;
48975;SDS011;34791;52.752;8.346;2023-03-17T02:03:53;8.88;;;4.15;;
48975;SDS011;34791;52.752;8.346;2023-03-17T02:06:19;8.17;;;4.70;;
48975;SDS011;34791;52.752;8.346;2023-03-17T02:08:46;8.00;;;4.27;;
48975;SDS011;34791;52.752;8.346;2023-03-17T02:11:11;9.30;;;4.33;;
48975;SDS011;34791;52.752;8.346;2023-03-17T02:13:37;8.03;;;4.30;;
48975;SDS011;34791;52.752;8.346;2023-03-17T02:16:03;8.03;;;4.00;;
48975;SDS011;34791;52.752;8.346;2023-03-17T02:18:29;7.47;;;3.77;;
48975;SDS011;34791;52.752;8.346;2023-03-17T02:24:01;8.87;;;4.50;;
48975;SDS011;34791;52.752;8.346;2023-03-17T02:26:30;7.30;;;3.90;;
48975;SDS011;34791;52.752;8.346;2023-03-17T02:28:59;10.67;;;4.27;;
48975;SDS011;34791;52.752;8.346;2023-03-17T02:31:24;7.00;;;3.03;;
48975;SDS011;34791;52.752;8.346;2023-03-17T02:33:52;7.63;;;3.40;;
48975;SDS011;34791;52.752;8.346;2023-03-17T02:36:18;5.97;;;2.77;;
48975;SDS011;34791;52.752;8.346;2023-03-17T02:38:44;8.33;;;4.00;;
48975;SDS011;34791;52.752;8.346;2023-03-17T02:41:10;6.57;;;2.87;;
48975;SDS011;34791;52.752;8.346;2023-03-17T02:43:35;6.67;;;3.70;;
48975;SDS011;34791;52.752;8.346;2023-03-17T02:46:01;7.67;;;3.77;;
48975;SDS011;34791;52.752;8.346;2023-03-17T02:48:27;6.97;;;3.37;;
48975;SDS011;34791;52.752;8.346;2023-03-17T02:50:53;7.10;;;3.67;;
48975;SDS011;34791;52.752;8.346;2023-03-17T02:53:18;6.27;;;3.33;;
48975;SDS011;34791;52.752;8.346;2023-03-17T02:55:43;6.07;;;2.80;;
48975;SDS011;34791;52.752;8.346;2023-03-17T02:58:09;7.63;;;3.77;;
48975;SDS011;34791;52.752;8.346;2023-03-17T03:00:35;8.57;;;3.83;;
48975;SDS011;34791;52.752;8.346;2023-03-17T03:03:00;8.07;;;3.97;;
48975;SDS011;34791;52.752;8.346;2023-03-17T03:05:26;7.60;;;3.63;;
48975;SDS011;34791;52.752;8.346;2023-03-17T03:07:52;7.50;;;3.20;;
48975;SDS011;34791;52.752;8.346;2023-03-17T03:10:18;8.53;;;3.53;;
48975;SDS011;34791;52.752;8.346;2023-03-17T03:12:44;8.23;;;4.33;;
48975;SDS011;34791;52.752;8.346;2023-03-17T03:15:10;8.03;;;3.93;;
48975;SDS011;34791;52.752;8.346;2023-03-17T03:17:35;9.97;;;4.37;;
48975;SDS011;34791;52.752;8.346;2023-03-17T03:20:02;9.07;;;4.73;;
48975;SDS011;34791;52.752;8.346;2023-03-17T03:22:28;9.00;;;4.17;;
48975;SDS011;34791;52.752;8.346;2023-03-17T03:24:53;8.70;;;4.10;;
48975;SDS011;34791;52.752;8.346;2023-03-17T03:27:19;12.10;;;4.37;;
48975;SDS011;34791;52.752;8.346;2023-03-17T03:29:44;10.17;;;4.77;;
48975;SDS011;34791;52.752;8.346;2023-03-17T03:32:10;7.43;;;4.13;;
48975;SDS011;34791;52.752;8.346;2023-03-17T03:34:35;9.60;;;4.10;;
48975;SDS011;34791;52.752;8.346;2023-03-17T03:37:01;8.13;;;3.70;;
48975;SDS011;34791;52.752;8.346;2023-03-17T03:39:26;9.50;;;4.77;;
48975;SDS011;34791;52.752;8.346;2023-03-17T03:41:52;8.03;;;3.87;;
48975;SDS011;34791;52.752;8.346;2023-03-17T03:44:21;7.60;;;3.97;;
48975;SDS011;34791;52.752;8.346;2023-03-17T03:46:46;6.77;;;3.63;;
48975;SDS011;34791;52.752;8.346;2023-03-17T03:49:12;9.43;;;4.00;;
48975;SDS011;34791;52.752;8.346;2023-03-17T03:51:37;10.17;;;4.07;;
48975;SDS011;34791;52.752;8.346;2023-03-17T03:54:03;10.60;;;4.07;;
48975;SDS011;34791;52.752;8.346;2023-03-17T03:56:28;7.83;;;4.00;;
48975;SDS011;34791;52.752;8.346;2023-03-17T03:58:54;8.27;;;3.80;;
48975;SDS011;34791;52.752;8.346;2023-03-17T04:01:20;7.50;;;3.60;;
48975;SDS011;34791;52.752;8.346;2023-03-17T04:03:46;9.03;;;3.93;;
48975;SDS011;34791;52.752;8.346;2023-03-17T04:06:11;7.47;;;4.10;;
48975;SDS011;34791;52.752;8.346;2023-03-17T04:08:37;10.97;;;4.23;;
48975;SDS011;34791;52.752;8.346;2023-03-17T04:11:02;7.77;;;4.10;;
48975;SDS011;34791;52.752;8.346;2023-03-17T04:13:28;8.70;;;3.87;;
48975;SDS011;34791;52.752;8.346;2023-03-17T04:15:53;9.27;;;4.20;;
48975;SDS011;34791;52.752;8.346;2023-03-17T04:18:19;11.17;;;4.90;;
48975;SDS011;34791;52.752;8.346;2023-03-17T04:20:44;4.97;;;2.50;;
48975;SDS011;34791;52.752;8.346;2023-03-17T04:23:10;7.57;;;4.17;;
48975;SDS011;34791;52.752;8.346;2023-03-17T04:25:35;7.33;;;3.80;;
48975;SDS011;34791;52.752;8.346;2023-03-17T04:28:02;8.60;;;3.53;;
48975;SDS011;34791;52.752;8.346;2023-03-17T04:30:27;6.97;;;3.93;;
48975;SDS011;34791;52.752;8.346;2023-03-17T04:32:53;7.37;;;3.23;;
48975;SDS011;34791;52.752;8.346;2023-03-17T04:35:19;8.63;;;4.33;;
48975;SDS011;34791;52.752;8.346;2023-03-17T04:37:46;11.40;;;4.20;;
48975;SDS011;34791;52.752;8.346;2023-03-17T04:40:12;9.50;;;4.03;;
48975;SDS011;34791;52.752;8.346;2023-03-17T04:42:39;8.70;;;4.60;;
48975;SDS011;34791;52.752;8.346;2023-03-17T04:45:05;8.50;;;4.23;;
48975;SDS011;34791;52.752;8.346;2023-03-17T04:47:33;7.20;;;3.53;;
48975;SDS011;34791;52.752;8.346;2023-03-17T04:49:59;9.47;;;4.13;;
48975;SDS011;34791;52.752;8.346;2023-03-17T04:52:25;8.20;;;4.47;;
48975;SDS011;34791;52.752;8.346;2023-03-17T04:54:50;7.10;;;3.53;;
48975;SDS011;34791;52.752;8.346;2023-03-17T04:57:16;9.10;;;4.53;;
48975;SDS011;34791;52.752;8.346;2023-03-17T04:59:42;10.03;;;3.40;;
48975;SDS011;34791;52.752;8.346;2023-03-17T05:02:08;9.67;;;4.50;;
48975;SDS011;34791;52.752;8.346;2023-03-17T05:04:33;7.63;;;3.83;;
48975;SDS011;34791;52.752;8.346;2023-03-17T05:06:59;7.70;;;3.43;;
48975;SDS011;34791;52.752;8.346;2023-03-17T05:09:24;6.97;;;3.57;;
48975;SDS011;34791;52.752;8.346;2023-03-17T05:11:52;9.50;;;4.00;;
48975;SDS011;34791;52.752;8.346;2023-03-17T05:14:18;7.10;;;3.40;;
48975;SDS011;34791;52.752;8.346;2023-03-17T05:16:45;8.13;;;3.93;;
48975;SDS011;34791;52.752;8.346;2023-03-17T05:19:12;8.40;;;2.67;;
48975;SDS011;34791;52.752;8.346;2023-03-17T05:24:16;6.93;;;3.87;;
48975;SDS011;34791;52.752;8.346;2023-03-17T05:26:41;7.27;;;3.80;;
48975;SDS011;34791;52.752;8.346;2023-03-17T05:29:07;5.90;;;3.10;;
48975;SDS011;34791;52.752;8.346;2023-03-17T05:31:33;7.23;;;3.50;;
48975;SDS011;34791;52.752;8.346;2023-03-17T05:33:58;6.97;;;3.73;;
48975;SDS011;34791;52.752;8.346;2023-03-17T05:36:24;7.27;;;3.67;;
48975;SDS011;34791;52.752;8.346;2023-03-17T05:38:50;7.27;;;3.70;;
48975;SDS011;34791;52.752;8.346;2023-03-17T05:41:16;8.97;;;4.10;;
48975;SDS011;34791;52.752;8.346;2023-03-17T05:43:41;8.43;;;4.33;;
48975;SDS011;34791;52.752;8.346;2023-03-17T05:46:07;9.20;;;4.80;;
48975;SDS011;34791;52.752;8.346;2023-03-17T05:48:33;7.77;;;4.10;;
48975;SDS011;34791;52.752;8.346;2023-03-17T05:50:58;8.63;;;4.20;;
48975;SDS011;34791;52.752;8.346;2023-03-17T05:53:24;8.27;;;4.20;;
48975;SDS011;34791;52.752;8.346;2023-03-17T05:55:49;8.30;;;4.20;;
48975;SDS011;34791;52.752;8.346;2023-03-17T05:58:16;7.30;;;4.13;;
48975;SDS011;34791;52.752;8.346;2023-03-17T06:00:42;8.60;;;4.70;;
48975;SDS011;34791;52.752;8.346;2023-03-17T06:03:08;8.43;;;4.17;;
48975;SDS011;34791;52.752;8.346;2023-03-17T06:05:34;9.90;;;4.50;;
48975;SDS011;34791;52.752;8.346;2023-03-17T06:07:59;6.70;;;4.20;;
48975;SDS011;34791;52.752;8.346;2023-03-17T06:10:25;6.87;;;3.40;;
48975;SDS011;34791;52.752;8.346;2023-03-17T06:12:51;6.67;;;3.43;;
48975;SDS011;34791;52.752;8.346;2023-03-17T06:15:16;7.00;;;3.73;;
48975;SDS011;34791;52.752;8.346;2023-03-17T06:17:43;8.03;;;3.73;;
48975;SDS011;34791;52.752;8.346;2023-03-17T06:20:09;6.80;;;3.60;;
48975;SDS011;34791;52.752;8.346;2023-03-17T06:22:35;8.47;;;3.60;;
48975;SDS011;34791;52.752;8.346;2023-03-17T06:25:02;6.20;;;3.47;;
48975;SDS011;34791;52.752;8.346;2023-03-17T06:27:28;6.93;;;3.27;;
48975;SDS011;34791;52.752;8.346;2023-03-17T06:29:53;8.13;;;3.70;;
48975;SDS011;34791;52.752;8.346;2023-03-17T06:32:19;7.30;;;3.93;;
48975;SDS011;34791;52.752;8.346;2023-03-17T06:34:44;6.40;;;3.00;;
48975;SDS011;34791;52.752;8.346;2023-03-17T06:37:10;5.37;;;3.30;;
48975;SDS011;34791;52.752;8.346;2023-03-17T06:39:36;5.30;;;3.10;;
48975;SDS011;34791;52.752;8.346;2023-03-17T06:42:02;6.83;;;3.17;;
48975;SDS011;34791;52.752;8.346;2023-03-17T06:44:28;6.90;;;3.13;;
48975;SDS011;34791;52.752;8.346;2023-03-17T06:46:54;7.00;;;3.30;;
48975;SDS011;34791;52.752;8.346;2023-03-17T06:49:19;6.53;;;3.33;;
48975;SDS011;34791;52.752;8.346;2023-03-17T06:51:45;6.93;;;3.50;;
48975;SDS011;34791;52.752;8.346;2023-03-17T06:54:10;6.97;;;3.07;;
48975;SDS011;34791;52.752;8.346;2023-03-17T06:56:36;6.90;;;3.13;;
48975;SDS011;34791;52.752;8.346;2023-03-17T06:59:02;5.67;;;3.17;;
48975;SDS011;34791;52.752;8.346;2023-03-17T07:01:28;6.80;;;3.40;;
48975;SDS011;34791;52.752;8.346;2023-03-17T07:03:54;5.63;;;3.43;;
48975;SDS011;34791;52.752;8.346;2023-03-17T07:06:20;8.03;;;3.57;;
48975;SDS011;34791;52.752;8.346;2023-03-17T07:08:47;6.27;;;2.90;;
48975;SDS011;34791;52.752;8.346;2023-03-17T07:11:12;5.60;;;3.10;;
48975;SDS011;34791;52.752;8.346;2023-03-17T07:13:38;7.47;;;3.40;;
48975;SDS011;34791;52.752;8.346;2023-03-17T07:16:05;4.83;;;2.80;;
48975;SDS011;34791;52.752;8.346;2023-03-17T07:18:31;7.90;;;3.10;;
48975;SDS011;34791;52.752;8.346;2023-03-17T07:20:57;12.03;;;3.27;;
48975;SDS011;34791;52.752;8.346;2023-03-17T07:23:24;6.00;;;3.30;;
48975;SDS011;34791;52.752;8.346;2023-03-17T07:25:50;7.50;;;3.30;;
48975;SDS011;34791;52.752;8.346;2023-03-17T07:28:16;5.38;;;2.90;;
48975;SDS011;34791;52.752;8.346;2023-03-17T07:30:43;7.63;;;3.50;;
48975;SDS011;34791;52.752;8.346;2023-03-17T07:33:13;5.43;;;3.10;;
48975;SDS011;34791;52.752;8.346;2023-03-17T07:35:40;5.57;;;3.10;;
48975;SDS011;34791;52.752;8.346;2023-03-17T07:38:06;5.32;;;2.90;;
48975;SDS011;34791;52.752;8.346;2023-03-17T07:40:32;6.70;;;3.20;;
48975;SDS011;34791;52.752;8.346;2023-03-17T07:42:58;5.13;;;2.88;;
48975;SDS011;34791;52.752;8.346;2023-03-17T07:45:23;5.95;;;3.10;;
48975;SDS011;34791;52.752;8.346;2023-03-17T07:47:49;6.45;;;3.10;;
48975;SDS011;34791;52.752;8.346;2023-03-17T07:50:14;5.47;;;2.80;;
48975;SDS011;34791;52.752;8.346;2023-03-17T07:52:40;6.38;;;3.08;;
48975;SDS011;34791;52.752;8.346;2023-03-17T07:55:06;4.80;;;2.90;;
48975;SDS011;34791;52.752;8.346;2023-03-17T07:57:34;5.67;;;3.10;;
48975;SDS011;34791;52.752;8.346;2023-03-17T08:00:00;9.43;;;3.60;;
48975;SDS011;34791;52.752;8.346;2023-03-17T08:02:26;6.13;;;3.13;;
48975;SDS011;34791;52.752;8.346;2023-03-17T08:04:51;5.83;;;3.33;;
48975;SDS011;34791;52.752;8.346;2023-03-17T08:07:17;6.50;;;3.03;;
48975;SDS011;34791;52.752;8.346;2023-03-17T08:09:43;6.35;;;3.17;;
48975;SDS011;34791;52.752;8.346;2023-03-17T08:12:09;5.50;;;3.00;;
48975;SDS011;34791;52.752;8.346;2023-03-17T08:14:35;5.57;;;3.08;;
48975;SDS011;34791;52.752;8.346;2023-03-17T08:17:01;6.22;;;2.90;;
48975;SDS011;34791;52.752;8.346;2023-03-17T08:19:26;6.00;;;2.65;;
48975;SDS011;34791;52.752;8.346;2023-03-17T08:21:52;7.18;;;2.97;;
48975;SDS011;34791;52.752;8.346;2023-03-17T08:24:17;7.47;;;2.95;;
48975;SDS011;34791;52.752;8.346;2023-03-17T08:26:47;6.78;;;3.22;;
48975;SDS011;34791;52.752;8.346;2023-03-17T08:29:13;5.38;;;2.80;;
48975;SDS011;34791;52.752;8.346;2023-03-17T08:31:40;5.70;;;2.78;;
48975;SDS011;34791;52.752;8.346;2023-03-17T08:34:06;5.43;;;3.00;;
48975;SDS011;34791;52.752;8.346;2023-03-17T08:36:31;6.03;;;3.13;;
48975;SDS011;34791;52.752;8.346;2023-03-17T08:38:57;5.22;;;2.90;;
48975;SDS011;34791;52.752;8.346;2023-03-17T08:41:23;4.80;;;2.80;;
48975;SDS011;34791;52.752;8.346;2023-03-17T08:43:50;5.63;;;2.80;;
48975;SDS011;34791;52.752;8.346;2023-03-17T08:46:20;6.37;;;3.17;;
48975;SDS011;34791;52.752;8.346;2023-03-17T08:48:56;5.40;;;2.53;;
48975;SDS011;34791;52.752;8.346;2023-03-17T08:51:23;6.22;;;2.90;;
48975;SDS011;34791;52.752;8.346;2023-03-17T08:53:51;6.90;;;2.83;;
48975;SDS011;34791;52.752;8.346;2023-03-17T08:56:17;5.20;;;2.60;;
48975;SDS011;34791;52.752;8.346;2023-03-17T08:58:44;4.65;;;2.47;;
48975;SDS011;34791;52.752;8.346;2023-03-17T09:01:10;4.80;;;2.67;;
48975;SDS011;34791;52.752;8.346;2023-03-17T09:03:36;6.15;;;2.83;;
48975;SDS011;34791;52.752;8.346;2023-03-17T09:06:03;5.28;;;2.85;;
48975;SDS011;34791;52.752;8.346;2023-03-17T09:08:31;5.97;;;3.45;;
48975;SDS011;34791;52.752;8.346;2023-03-17T09:10:58;5.03;;;2.95;;
48975;SDS011;34791;52.752;8.346;2023-03-17T09:13:25;4.55;;;2.60;;
48975;SDS011;34791;52.752;8.346;2023-03-17T09:15:51;6.22;;;2.90;;
48975;SDS011;34791;52.752;8.346;2023-03-17T09:18:17;4.95;;;2.65;;
48975;SDS011;34791;52.752;8.346;2023-03-17T09:20:43;5.28;;;2.88;;
48975;SDS011;34791;52.752;8.346;2023-03-17T09:23:09;5.85;;;2.75;;
48975;SDS011;34791;52.752;8.346;2023-03-17T09:25:36;5.95;;;2.47;;
48975;SDS011;34791;52.752;8.346;2023-03-17T09:28:04;6.03;;;2.72;;
48975;SDS011;34791;52.752;8.346;2023-03-17T09:30:31;5.13;;;2.83;;
48975;SDS011;34791;52.752;8.346;2023-03-17T09:32:57;6.75;;;2.65;;
48975;SDS011;34791;52.752;8.346;2023-03-17T09:35:24;5.00;;;2.70;;
48975;SDS011;34791;52.752;8.346;2023-03-17T09:37:52;4.90;;;2.72;;
48975;SDS011;34791;52.752;8.346;2023-03-17T09:40:19;7.28;;;3.00;;
48975;SDS011;34791;52.752;8.346;2023-03-17T09:42:49;6.63;;;2.55;;
48975;SDS011;34791;52.752;8.346;2023-03-17T09:45:32;4.57;;;2.65;;
48975;SDS011;34791;52.752;8.346;2023-03-17T09:51:16;7.90;;;2.83;;
48975;SDS011;34791;52.752;8.346;2023-03-17T09:54:01;4.82;;;2.58;;
48975;SDS011;34791;52.752;8.346;2023-03-17T09:56:29;6.07;;;2.67;;
48975;SDS011;34791;52.752;8.346;2023-03-17T09:59:11;6.50;;;2.70;;
48975;SDS011;34791;52.752;8.346;2023-03-17T10:01:57;5.93;;;2.80;;
48975;SDS011;34791;52.752;8.346;2023-03-17T10:04:23;6.88;;;2.80;;
48975;SDS011;34791;52.752;8.346;2023-03-17T10:06:49;6.00;;;3.15;;
48975;SDS011;34791;52.752;8.346;2023-03-17T10:09:17;5.72;;;2.97;;
48975;SDS011;34791;52.752;8.346;2023-03-17T10:11:53;5.22;;;2.85;;
48975;SDS011;34791;52.752;8.346;2023-03-17T10:17:27;7.40;;;3.00;;
48975;SDS011;34791;52.752;8.346;2023-03-17T10:23:04;6.55;;;3.08;;
48975;SDS011;34791;52.752;8.346;2023-03-17T10:25:32;5.33;;;2.90;;
48975;SDS011;34791;52.752;8.346;2023-03-17T10:28:01;7.32;;;3.10;;
48975;SDS011;34791;52.752;8.346;2023-03-17T10:30:48;6.05;;;3.35;;
48975;SDS011;34791;52.752;8.346;2023-03-17T10:33:14;7.57;;;3.15;;
48975;SDS011;34791;52.752;8.346;2023-03-17T10:35:39;6.43;;;2.92;;
48975;SDS011;34791;52.752;8.346;2023-03-17T10:38:21;8.30;;;3.17;;
48975;SDS011;34791;52.752;8.346;2023-03-17T10:41:01;6.63;;;3.20;;
48975;SDS011;34791;52.752;8.346;2023-03-17T10:43:50;6.25;;;3.45;;
48975;SDS011;34791;52.752;8.346;2023-03-17T10:46:19;6.50;;;3.20;;
48975;SDS011;34791;52.752;8.346;2023-03-17T10:48:52;6.40;;;3.28;;
48975;SDS011;34791;52.752;8.346;2023-03-17T10:51:26;6.40;;;3.40;;
48975;SDS011;34791;52.752;8.346;2023-03-17T10:53:58;6.90;;;3.35;;
48975;SDS011;34791;52.752;8.346;2023-03-17T10:56:25;7.30;;;3.50;;
48975;SDS011;34791;52.752;8.346;2023-03-17T10:58:54;8.20;;;3.60;;
48975;SDS011;34791;52.752;8.346;2023-03-17T11:04:37;7.57;;;3.35;;
48975;SDS011;34791;52.752;8.346;2023-03-17T11:07:16;6.78;;;3.88;;
48975;SDS011;34791;52.752;8.346;2023-03-17T11:09:49;6.90;;;3.67;;
48975;SDS011;34791;52.752;8.346;2023-03-17T11:12:21;6.03;;;3.42;;
48975;SDS011;34791;52.752;8.346;2023-03-17T11:14:59;6.63;;;3.58;;
48975;SDS011;34791;52.752;8.346;2023-03-17T11:17:47;6.35;;;3.00;;
48975;SDS011;34791;52.752;8.346;2023-03-17T11:29:22;6.95;;;3.83;;
48975;SDS011;34791;52.752;8.346;2023-03-17T11:32:21;8.52;;;3.45;;
48975;SDS011;34791;52.752;8.346;2023-03-17T11:36:28;7.80;;;3.70;;
48975;SDS011;34791;52.752;8.346;2023-03-17T11:38:06;7.22;;;3.58;;
48975;SDS011;34791;52.752;8.346;2023-03-17T11:47:19;6.15;;;3.45;;
48975;SDS011;34791;52.752;8.346;2023-03-17T11:50:12;9.40;;;4.13;;
48975;SDS011;34791;52.752;8.346;2023-03-17T11:56:44;7.10;;;3.47;;
48975;SDS011;34791;52.752;8.346;2023-03-17T12:05:23;9.52;;;4.00;;
48975;SDS011;34791;52.752;8.346;2023-03-17T12:07:55;6.03;;;3.47;;
48975;SDS011;34791;52.752;8.346;2023-03-17T12:10:29;6.57;;;3.75;;
48975;SDS011;34791;52.752;8.346;2023-03-17T12:13:08;8.07;;;3.88;;
48975;SDS011;34791;52.752;8.346;2023-03-17T12:15:43;6.80;;;3.70;;
48975;SDS011;34791;52.752;8.346;2023-03-17T12:18:36;6.95;;;3.63;;
48975;SDS011;34791;52.752;8.346;2023-03-17T12:21:58;6.80;;;3.58;;
48975;SDS011;34791;52.752;8.346;2023-03-17T12:24:43;8.65;;;3.92;;
48975;SDS011;34791;52.752;8.346;2023-03-17T12:27:18;6.93;;;3.80;;
48975;SDS011;34791;52.752;8.346;2023-03-17T12:29:57;7.30;;;3.70;;
48975;SDS011;34791;52.752;8.346;2023-03-17T12:35:26;7.20;;;3.55;;
48975;SDS011;34791;52.752;8.346;2023-03-17T12:40:24;8.35;;;3.63;;
48975;SDS011;34791;52.752;8.346;2023-03-17T12:49:17;7.40;;;3.70;;
48975;SDS011;34791;52.752;8.346;2023-03-17T12:55:12;7.53;;;4.00;;
48975;SDS011;34791;52.752;8.346;2023-03-17T12:57:41;7.25;;;4.00;;
48975;SDS011;34791;52.752;8.346;2023-03-17T13:00:22;9.50;;;3.85;;
48975;SDS011;34791;52.752;8.346;2023-03-17T13:03:06;7.82;;;4.03;;
48975;SDS011;34791;52.752;8.346;2023-03-17T13:05:58;8.07;;;4.10;;
48975;SDS011;34791;52.752;8.346;2023-03-17T13:08:30;7.82;;;4.18;;
48975;SDS011;34791;52.752;8.346;2023-03-17T13:17:31;8.73;;;4.10;;
48975;SDS011;34791;52.752;8.346;2023-03-17T13:23:14;8.63;;;4.43;;
48975;SDS011;34791;52.752;8.346;2023-03-17T13:25:51;7.53;;;4.38;;
48975;SDS011;34791;52.752;8.346;2023-03-17T13:29:00;8.95;;;4.70;;
48975;SDS011;34791;52.752;8.346;2023-03-17T13:31:10;7.60;;;3.92;;
48975;SDS011;34791;52.752;8.346;2023-03-17T13:34:10;8.45;;;4.68;;
48975;SDS011;34791;52.752;8.346;2023-03-17T13:45:47;10.15;;;4.50;;
48975;SDS011;34791;52.752;8.346;2023-03-17T13:51:10;8.48;;;4.05;;
48975;SDS011;34791;52.752;8.346;2023-03-17T13:53:44;8.30;;;4.50;;
48975;SDS011;34791;52.752;8.346;2023-03-17T13:59:18;10.73;;;4.80;;
48975;SDS011;34791;52.752;8.346;2023-03-17T14:01:58;8.82;;;4.90;;
48975;SDS011;34791;52.752;8.346;2023-03-17T14:04:29;8.98;;;4.15;;
48975;SDS011;34791;52.752;8.346;2023-03-17T14:07:11;8.98;;;4.47;;
48975;SDS011;34791;52.752;8.346;2023-03-17T14:09:40;8.40;;;4.32;;
48975;SDS011;34791;52.752;8.346;2023-03-17T14:15:17;8.57;;;4.75;;
48975;SDS011;34791;52.752;8.346;2023-03-17T14:17:50;9.15;;;4.60;;
48975;SDS011;34791;52.752;8.346;2023-03-17T14:20:23;10.30;;;4.68;;
48975;SDS011;34791;52.752;8.346;2023-03-17T14:22:54;9.95;;;4.35;;
48975;SDS011;34791;52.752;8.346;2023-03-17T14:25:23;8.18;;;4.10;;
48975;SDS011;34791;52.752;8.346;2023-03-17T14:27:56;8.82;;;4.25;;
48975;SDS011;34791;52.752;8.346;2023-03-17T14:30:24;7.95;;;4.32;;
48975;SDS011;34791;52.752;8.346;2023-03-17T14:32:59;7.32;;;4.07;;
48975;SDS011;34791;52.752;8.346;2023-03-17T14:35:29;8.20;;;4.65;;
48975;SDS011;34791;52.752;8.346;2023-03-17T14:37:57;8.23;;;4.60;;
48975;SDS011;34791;52.752;8.346;2023-03-17T14:40:26;6.95;;;3.92;;
48975;SDS011;34791;52.752;8.346;2023-03-17T14:42:54;8.48;;;4.63;;
48975;SDS011;34791;52.752;8.346;2023-03-17T14:45:27;7.20;;;4.20;;
48975;SDS011;34791;52.752;8.346;2023-03-17T14:47:54;7.05;;;3.78;;
48975;SDS011;34791;52.752;8.346;2023-03-17T14:50:28;6.82;;;3.88;;
48975;SDS011;34791;52.752;8.346;2023-03-17T14:52:56;7.28;;;3.80;;
48975;SDS011;34791;52.752;8.346;2023-03-17T14:55:33;7.82;;;4.30;;
48975;SDS011;34791;52.752;8.346;2023-03-17T14:58:15;7.93;;;3.90;;
48975;SDS011;34791;52.752;8.346;2023-03-17T15:00:46;8.27;;;3.75;;
48975;SDS011;34791;52.752;8.346;2023-03-17T15:03:20;12.52;;;4.10;;
48975;SDS011;34791;52.752;8.346;2023-03-17T15:05:47;9.80;;;4.45;;
48975;SDS011;34791;52.752;8.346;2023-03-17T15:08:26;10.38;;;4.72;;
48975;SDS011;34791;52.752;8.346;2023-03-17T15:10:56;8.00;;;4.22;;
48975;SDS011;34791;52.752;8.346;2023-03-17T15:13:27;7.68;;;4.28;;
48975;SDS011;34791;52.752;8.346;2023-03-17T15:15:57;11.50;;;4.63;;
48975;SDS011;34791;52.752;8.346;2023-03-17T15:18:27;9.18;;;4.88;;
48975;SDS011;34791;52.752;8.346;2023-03-17T15:20:53;9.52;;;4.35;;
48975;SDS011;34791;52.752;8.346;2023-03-17T15:23:21;9.60;;;4.70;;
48975;SDS011;34791;52.752;8.346;2023-03-17T15:25:52;8.68;;;4.53;;
48975;SDS011;34791;52.752;8.346;2023-03-17T15:28:21;7.95;;;4.78;;
48975;SDS011;34791;52.752;8.346;2023-03-17T15:30:50;8.48;;;4.50;;
48975;SDS011;34791;52.752;8.346;2023-03-17T15:33:20;9.80;;;4.90;;
48975;SDS011;34791;52.752;8.346;2023-03-17T15:36:15;9.30;;;4.50;;
48975;SDS011;34791;52.752;8.346;2023-03-17T15:38:41;8.98;;;4.47;;
48975;SDS011;34791;52.752;8.346;2023-03-17T15:41:07;8.93;;;4.63;;
48975;SDS011;34791;52.752;8.346;2023-03-17T15:43:32;9.40;;;5.00;;
48975;SDS011;34791;52.752;8.346;2023-03-17T15:46:00;10.02;;;4.93;;
48975;SDS011;34791;52.752;8.346;2023-03-17T15:48:29;8.93;;;4.93;;
48975;SDS011;34791;52.752;8.346;2023-03-17T15:50:59;9.80;;;4.90;;
48975;SDS011;34791;52.752;8.346;2023-03-17T15:53:25;9.23;;;4.47;;
48975;SDS011;34791;52.752;8.346;2023-03-17T15:55:51;10.65;;;5.28;;
48975;SDS011;34791;52.752;8.346;2023-03-17T15:58:17;10.52;;;5.00;;
48975;SDS011;34791;52.752;8.346;2023-03-17T16:00:44;8.65;;;4.80;;
48975;SDS011;34791;52.752;8.346;2023-03-17T16:03:21;8.98;;;4.90;;
48975;SDS011;34791;52.752;8.346;2023-03-17T16:05:52;8.48;;;4.70;;
48975;SDS011;34791;52.752;8.346;2023-03-17T16:08:18;9.00;;;4.40;;
48975;SDS011;34791;52.752;8.346;2023-03-17T16:10:44;8.63;;;4.60;;
48975;SDS011;34791;52.752;8.346;2023-03-17T16:13:10;10.15;;;5.25;;
48975;SDS011;34791;52.752;8.346;2023-03-17T16:15:37;9.95;;;4.55;;
48975;SDS011;34791;52.752;8.346;2023-03-17T16:18:06;8.82;;;4.40;;
48975;SDS011;34791;52.752;8.346;2023-03-17T16:20:41;9.07;;;4.30;;
48975;SDS011;34791;52.752;8.346;2023-03-17T16:23:16;10.02;;;4.50;;
48975;SDS011;34791;52.752;8.346;2023-03-17T16:25:44;8.15;;;4.30;;
48975;SDS011;34791;52.752;8.346;2023-03-17T16:28:31;10.02;;;4.70;;